Augusta, Arkansas
Current Conditions -  °F | °C
As of 9:56 AM on Wednesday 26 Nov 2014 (Local Time) from KSRC Reporting Station
Clear Clear  
Wind Chill:   Ceiling: Unl
Heat Index:   Visibility: 10mi
Dew Point:   Wind: 5mph
Humidity: 86%   Direction: 170°S
Pressure: 30.05"   Gusts: NA
Location:  35.28°N, 91.37°W
Report Text: KSRC 261556Z AUTO 17004KT 10SM CLR 04/02 A3005 RMK AO2 SLP183 T00390017 TSNO
Loading
Personal Weather Stations






























Interactive Weather Map New forecast layout! Learn more

10-Day Weather Forecast

Advertisements
Track Severe Weather on mobile